Time;durP1;ratioP1;P1;durP2;ratioP2;P2;SDS_P1;SDS_P2;PMS_P1;PMS_P2;Temp;Humidity;BMP_temperature;BMP_pressure;BME280_temperature;BME280_humidity;BME280_pressure;Samples;Min_cycle;Max_cycle;Signal;HPM_P1;HPM_P2
2022/03/12 00:00:43;;;;;;;11.40;6.00;;;6.30;74.40;;;;;;5072761;28;20076;-49
2022/03/12 00:03:10;;;;;;;12.10;6.97;;;6.30;74.10;;;;;;5072683;28;20123;-52
2022/03/12 00:06:00;;;;;;;14.40;7.03;;;6.30;73.30;;;;;;5057307;28;20029;-50
2022/03/12 00:08:34;;;;;;;12.77;6.68;;;6.40;73.40;;;;;;5052132;28;20424;-52
2022/03/12 00:11:01;;;;;;;11.63;6.40;;;6.40;73.40;;;;;;5052364;28;20481;-51
2022/03/12 00:13:26;;;;;;;15.65;6.78;;;6.40;73.70;;;;;;5052362;28;20498;-49
2022/03/12 00:15:52;;;;;;;14.75;6.28;;;6.30;74.50;;;;;;5052597;28;20041;-52
2022/03/12 00:18:20;;;;;;;14.90;6.70;;;6.40;73.60;;;;;;5051422;28;20132;-51
2022/03/12 00:20:50;;;;;;;11.10;5.97;;;6.40;73.60;;;;;;5034645;28;20072;-51
2022/03/12 00:23:18;;;;;;;13.70;6.18;;;6.30;74.20;;;;;;5052223;28;20093;-51
2022/03/12 00:25:48;;;;;;;13.43;6.95;;;6.30;73.70;;;;;;5052061;28;20100;-49
2022/03/12 00:28:15;;;;;;;12.77;6.10;;;6.30;74.00;;;;;;5050451;28;20045;-49
2022/03/12 00:30:46;;;;;;;12.82;6.43;;;6.30;73.80;;;;;;5052086;28;20044;-52
2022/03/12 00:33:12;;;;;;;14.93;6.47;;;6.30;74.20;;;;;;5050793;28;20040;-50
2022/03/12 00:35:38;;;;;;;15.88;7.28;;;6.30;74.10;;;;;;5052319;28;20045;-51
2022/03/12 00:38:04;;;;;;;12.50;6.60;;;6.30;73.60;;;;;;5052264;28;20037;-53
2022/03/12 00:40:30;;;;;;;12.75;7.07;;;6.30;73.70;;;;;;5050969;28;20052;-52
2022/03/12 00:42:56;;;;;;;12.65;7.18;;;6.30;74.00;;;;;;5052030;28;20112;-48
2022/03/12 00:45:22;;;;;;;11.30;6.18;;;6.30;73.70;;;;;;5052312;28;20147;-50
2022/03/12 00:47:49;;;;;;;13.93;6.82;;;6.30;73.80;;;;;;5034342;28;20081;-51
2022/03/12 00:50:16;;;;;;;14.02;7.47;;;6.30;74.40;;;;;;5052255;28;20158;-51
2022/03/12 00:52:43;;;;;;;10.75;6.90;;;6.30;74.40;;;;;;5052130;28;20049;-50
2022/03/12 00:55:09;;;;;;;10.88;6.85;;;6.30;73.90;;;;;;5051976;28;20049;-49
2022/03/12 00:57:35;;;;;;;12.80;6.97;;;6.20;73.80;;;;;;5052127;28;20621;-50
2022/03/12 01:00:01;;;;;;;14.98;7.22;;;6.30;73.50;;;;;;5052210;28;20542;-53
2022/03/12 01:02:26;;;;;;;11.85;6.60;;;6.30;73.70;;;;;;5050429;28;20392;-48
2022/03/12 01:04:53;;;;;;;12.02;6.57;;;6.30;74.00;;;;;;5055246;28;20033;-52
2022/03/12 01:07:18;;;;;;;11.75;7.15;;;6.30;74.90;;;;;;5050545;28;20033;-54
2022/03/12 01:09:44;;;;;;;11.00;6.10;;;6.20;74.20;;;;;;5051986;28;20036;-52
2022/03/12 01:12:11;;;;;;;14.82;6.70;;;6.20;74.00;;;;;;5051942;28;20106;-52
2022/03/12 01:14:41;;;;;;;13.15;6.88;;;6.20;74.20;;;;;;5051745;28;20374;-53
2022/03/12 01:17:07;;;;;;;9.98;5.75;;;6.20;74.30;;;;;;5051804;28;20110;-53
2022/03/12 01:19:34;;;;;;;14.10;6.70;;;6.20;74.10;;;;;;5051637;28;20631;-51
2022/03/12 01:22:07;;;;;;;12.35;6.93;;;6.20;74.50;;;;;;5051476;28;20504;-52
2022/03/12 01:24:34;;;;;;;;;;;6.20;74.00;;;;;;5051935;28;20053;-50
2022/03/12 01:27:00;;;;;;;13.60;6.57;;;6.20;74.30;;;;;;5051843;28;19983;-52
2022/03/12 01:29:25;;;;;;;13.07;6.88;;;6.20;74.30;;;;;;5051552;28;20493;-49
2022/03/12 01:31:52;;;;;;;13.30;6.95;;;6.10;74.30;;;;;;5051522;28;20124;-52
2022/03/12 01:34:18;;;;;;;11.05;6.32;;;6.10;75.20;;;;;;5051750;28;20087;-53
2022/03/12 01:36:44;;;;;;;13.07;7.10;;;6.10;74.40;;;;;;5051726;28;20437;-54
2022/03/12 01:39:09;;;;;;;14.98;7.22;;;6.10;74.50;;;;;;5051779;28;20122;-51
2022/03/12 01:41:40;;;;;;;13.63;6.55;;;6.10;74.50;;;;;;5053753;28;20044;-54
2022/03/12 01:44:07;;;;;;;12.70;7.00;;;6.10;75.30;;;;;;5055323;28;20095;-53
2022/03/12 01:46:35;;;;;;;12.27;7.28;;;6.10;75.30;;;;;;5055005;28;20481;-49
2022/03/12 01:49:09;;;;;;;13.20;6.50;;;6.00;74.80;;;;;;5055310;28;20134;-49
2022/03/12 01:51:36;;;;;;;14.73;6.85;;;6.00;75.50;;;;;;5055293;28;20106;-49
2022/03/12 01:54:03;;;;;;;14.38;7.20;;;6.00;75.80;;;;;;5054887;28;20049;-49
2022/03/12 01:56:29;;;;;;;13.98;7.00;;;6.00;75.70;;;;;;5053571;28;20091;-49
2022/03/12 01:58:58;;;;;;;15.48;6.50;;;6.00;75.70;;;;;;5055074;28;20080;-49
2022/03/12 02:01:27;;;;;;;13.52;7.45;;;5.90;75.60;;;;;;5054827;28;20045;-51
2022/03/12 02:03:54;;;;;;;11.07;6.57;;;5.90;76.10;;;;;;5057919;28;20037;-52
2022/03/12 02:06:21;;;;;;;15.02;7.03;;;6.00;76.20;;;;;;5054916;28;20041;-52
2022/03/12 02:08:49;;;;;;;11.93;6.25;;;5.90;76.50;;;;;;5054919;28;20124;-50
2022/03/12 02:11:25;;;;;;;10.55;6.30;;;5.90;76.00;;;;;;5054586;28;20114;-52
2022/03/12 02:14:17;;;;;;;11.50;6.65;;;5.90;76.50;;;;;;5054559;28;20543;-49
2022/03/12 02:16:50;;;;;;;12.73;7.70;;;5.90;76.30;;;;;;5054252;28;20049;-50
2022/03/12 02:19:17;;;;;;;11.68;6.53;;;5.90;76.30;;;;;;5054746;28;20041;-50
2022/03/12 02:21:57;;;;;;;10.50;6.28;;;5.90;76.20;;;;;;5054547;28;20377;-48
2022/03/12 02:24:26;;;;;;;13.52;8.15;;;5.90;76.90;;;;;;5054208;28;20049;-49
2022/03/12 02:26:54;;;;;;;15.32;7.50;;;5.90;77.40;;;;;;5054315;28;20052;-49
2022/03/12 02:29:21;;;;;;;12.95;6.63;;;5.90;77.20;;;;;;5054296;28;20482;-50
2022/03/12 02:31:55;;;;;;;16.10;7.10;;;5.80;77.70;;;;;;5054284;28;20101;-53
2022/03/12 02:34:30;;;;;;;14.20;7.43;;;5.80;77.00;;;;;;5054490;28;20083;-50
2022/03/12 02:36:57;;;;;;;14.15;6.72;;;5.80;77.60;;;;;;5054341;28;20135;-51
2022/03/12 02:39:25;;;;;;;12.85;6.90;;;5.80;77.60;;;;;;5052857;28;20060;-53
2022/03/12 02:41:51;;;;;;;12.80;6.93;;;5.80;77.60;;;;;;5054074;28;20044;-49
2022/03/12 02:44:23;;;;;;;13.10;7.05;;;5.80;77.80;;;;;;5054274;28;20148;-52
2022/03/12 02:47:14;;;;;;;11.75;6.85;;;5.80;77.70;;;;;;5054164;28;20040;-49
2022/03/12 02:49:50;;;;;;;11.38;6.97;;;5.80;77.40;;;;;;5053901;28;20045;-52
2022/03/12 02:52:17;;;;;;;12.93;7.25;;;5.80;77.40;;;;;;5052662;28;20393;-51
2022/03/12 02:54:44;;;;;;;13.65;7.97;;;5.80;78.00;;;;;;5053677;28;20041;-51
2022/03/12 02:57:10;;;;;;;13.60;7.35;;;5.80;77.60;;;;;;5052720;28;20052;-51
2022/03/12 02:59:38;;;;;;;14.55;7.47;;;5.80;78.00;;;;;;5053915;28;20083;-49
2022/03/12 03:02:08;;;;;;;11.88;6.68;;;5.80;77.80;;;;;;5053596;28;20132;-52
2022/03/12 03:04:38;;;;;;;11.05;6.43;;;5.80;77.60;;;;;;5057035;28;20051;-51
2022/03/12 03:07:05;;;;;;;15.13;7.22;;;5.80;78.00;;;;;;5053810;28;20098;-52
2022/03/12 03:09:31;;;;;;;19.00;7.32;;;5.80;78.00;;;;;;5053505;28;20482;-53
2022/03/12 03:11:57;;;;;;;12.20;7.03;;;5.80;77.50;;;;;;5053699;28;20389;-52
2022/03/12 03:14:26;;;;;;;13.45;7.00;;;5.80;78.10;;;;;;5053278;28;20055;-51
2022/03/12 03:16:58;;;;;;;12.07;6.80;;;5.80;77.70;;;;;;5053262;28;20045;-52
2022/03/12 03:19:25;;;;;;;;;;;5.80;78.00;;;;;;5052493;28;20825;-52
2022/03/12 03:21:55;;;;;;;13.50;7.10;;;5.80;78.10;;;;;;5053079;28;19928;-54
2022/03/12 03:24:22;;;;;;;13.25;6.60;;;5.70;78.20;;;;;;5053311;28;20084;-51
2022/03/12 03:26:48;;;;;;;13.20;7.50;;;5.80;78.50;;;;;;5053271;28;20051;-52
2022/03/12 03:29:15;;;;;;;11.40;7.22;;;5.80;78.50;;;;;;5053389;28;20382;-53
2022/03/12 03:31:41;;;;;;;13.82;7.47;;;5.80;78.30;;;;;;5053160;28;20060;-53
2022/03/12 03:34:07;;;;;;;11.10;6.22;;;5.70;78.80;;;;;;5053101;28;20120;-50
2022/03/12 03:36:34;;;;;;;13.82;8.10;;;5.70;78.30;;;;;;5053057;28;20596;-50
2022/03/12 03:39:00;;;;;;;12.50;6.97;;;5.70;78.00;;;;;;5052968;28;20036;-48
2022/03/12 03:41:26;;;;;;;14.10;7.85;;;5.70;78.50;;;;;;5052820;28;20119;-48
2022/03/12 03:43:51;;;;;;;13.90;7.35;;;5.70;78.60;;;;;;5035081;28;20076;-51
2022/03/12 03:46:22;;;;;;;13.18;7.00;;;5.70;78.80;;;;;;5052881;28;20037;-49
2022/03/12 03:48:51;;;;;;;15.88;7.32;;;5.70;78.60;;;;;;5052813;28;20524;-53
2022/03/12 03:51:18;;;;;;;11.50;6.47;;;5.70;79.20;;;;;;5053021;28;20045;-49
2022/03/12 03:53:44;;;;;;;14.63;7.30;;;5.70;79.10;;;;;;5052597;28;20674;-52
2022/03/12 03:56:10;;;;;;;13.52;7.82;;;5.70;79.40;;;;;;5052429;28;20036;-49
2022/03/12 03:58:36;;;;;;;14.38;7.63;;;5.70;78.70;;;;;;5051402;28;20037;-49
2022/03/12 04:01:04;;;;;;;13.55;7.13;;;5.70;78.70;;;;;;5051224;28;20041;-52
2022/03/12 04:03:33;;;;;;;12.85;6.93;;;5.70;79.40;;;;;;5053265;28;20366;-52
2022/03/12 04:06:01;;;;;;;11.88;7.00;;;5.60;79.30;;;;;;5053899;28;20045;-53
2022/03/12 04:08:28;;;;;;;13.73;7.47;;;5.60;79.60;;;;;;5051380;28;20037;-54
2022/03/12 04:10:53;;;;;;;12.88;7.30;;;5.60;79.10;;;;;;5052381;28;20045;-53
2022/03/12 04:13:21;;;;;;;13.77;7.35;;;5.60;79.40;;;;;;5052671;28;20037;-48
2022/03/12 04:15:49;;;;;;;12.02;6.63;;;5.60;80.40;;;;;;5052661;28;20037;-50
2022/03/12 04:18:15;;;;;;;12.82;6.78;;;5.50;79.80;;;;;;5052275;28;20037;-49
2022/03/12 04:20:45;;;;;;;15.95;6.95;;;5.50;79.80;;;;;;5034411;28;20490;-49
2022/03/12 04:23:12;;;;;;;15.18;7.35;;;5.50;79.00;;;;;;5052343;28;20041;-50
2022/03/12 04:25:40;;;;;;;13.25;7.30;;;5.50;79.60;;;;;;5050914;28;20049;-50
2022/03/12 04:28:09;;;;;;;12.02;6.88;;;5.50;78.90;;;;;;5051276;28;20045;-52
2022/03/12 04:30:37;;;;;;;14.00;7.05;;;5.50;80.30;;;;;;5052451;28;20127;-49
2022/03/12 04:33:02;;;;;;;13.57;7.50;;;5.40;79.90;;;;;;5052370;28;20049;-49
2022/03/12 04:35:28;;;;;;;12.40;7.10;;;5.40;80.30;;;;;;5051096;28;20046;-53
2022/03/12 04:37:55;;;;;;;12.52;7.22;;;5.40;80.30;;;;;;5052470;28;21227;-53
2022/03/12 04:40:26;;;;;;;17.42;7.80;;;5.30;81.00;;;;;;5052057;28;20044;-49
2022/03/12 04:42:53;;;;;;;13.00;7.63;;;5.30;81.50;;;;;;5051977;28;20083;-53
2022/03/12 04:45:21;;;;;;;12.50;6.85;;;5.30;81.70;;;;;;5050693;28;20040;-50
2022/03/12 04:47:49;;;;;;;12.32;7.28;;;5.40;82.10;;;;;;5052198;28;20044;-51
2022/03/12 04:50:16;;;;;;;13.55;7.32;;;5.30;82.20;;;;;;5052084;28;20037;-49
2022/03/12 04:52:57;;;;;;;11.80;6.55;;;5.30;82.70;;;;;;5052059;28;20045;-48
2022/03/12 04:55:26;;;;;;;11.18;6.70;;;5.30;83.10;;;;;;5052197;28;20036;-49
2022/03/12 04:57:55;;;;;;;16.10;7.28;;;5.20;82.90;;;;;;5052027;28;20052;-51
2022/03/12 05:00:27;;;;;;;13.60;7.20;;;5.30;83.40;;;;;;5051875;28;20048;-50
2022/03/12 05:02:55;;;;;;;11.23;7.28;;;5.20;83.40;;;;;;5051942;28;20052;-49
2022/03/12 05:05:22;;;;;;;13.60;7.30;;;5.20;84.20;;;;;;5055276;28;20068;-51
2022/03/12 05:07:49;;;;;;;15.25;7.05;;;5.20;83.90;;;;;;5052036;28;20063;-52
2022/03/12 05:10:20;;;;;;;12.40;7.20;;;5.20;85.30;;;;;;5052047;28;20112;-48
2022/03/12 05:12:50;;;;;;;13.30;7.28;;;5.20;85.00;;;;;;5051993;28;20122;-49
2022/03/12 05:15:17;;;;;;;12.63;7.07;;;5.20;85.10;;;;;;5053822;28;20052;-49
2022/03/12 05:17:48;;;;;;;13.43;7.45;;;5.20;85.50;;;;;;5054577;28;20091;-51
2022/03/12 05:20:26;;;;;;;13.07;7.18;;;5.20;85.70;;;;;;5055517;28;20049;-49
2022/03/12 05:22:52;;;;;;;14.32;7.32;;;5.20;86.00;;;;;;5055480;28;20370;-48
2022/03/12 05:25:19;;;;;;;11.95;6.75;;;5.20;85.40;;;;;;5055393;28;20061;-50
2022/03/12 05:27:50;;;;;;;12.13;7.28;;;5.30;85.80;;;;;;5055293;28;20051;-52
2022/03/12 05:30:16;;;;;;;15.50;6.80;;;5.30;87.30;;;;;;5055670;28;20029;-49
2022/03/12 05:32:42;;;;;;;12.57;6.97;;;5.30;85.80;;;;;;5055324;28;20313;-49
2022/03/12 05:35:08;;;;;;;13.60;7.15;;;5.30;85.90;;;;;;5055283;28;20117;-53
2022/03/12 05:37:36;;;;;;;13.43;6.75;;;5.20;85.30;;;;;;5055392;28;20049;-48
2022/03/12 05:40:04;;;;;;;16.17;7.15;;;5.30;85.20;;;;;;5055116;28;20037;-51
2022/03/12 05:42:32;;;;;;;11.50;6.57;;;5.30;85.80;;;;;;5055021;28;20491;-48
2022/03/12 05:44:58;;;;;;;13.63;7.03;;;5.30;86.20;;;;;;5055051;28;20612;-51
2022/03/12 05:47:24;;;;;;;12.15;7.25;;;5.30;85.70;;;;;;5055074;28;20097;-51
2022/03/12 05:49:50;;;;;;;11.88;7.03;;;5.40;86.60;;;;;;5054980;28;20048;-49
2022/03/12 05:52:17;;;;;;;12.50;7.32;;;5.40;88.40;;;;;;5055179;28;20033;-52
2022/03/12 05:54:47;;;;;;;13.88;7.20;;;5.40;88.10;;;;;;5055095;28;20120;-52
2022/03/12 05:57:13;;;;;;;13.70;7.50;;;5.40;90.20;;;;;;5053862;28;20064;-49
2022/03/12 05:59:38;;;;;;;11.27;6.50;;;5.40;91.30;;;;;;5055150;28;20541;-53
2022/03/12 06:02:04;;;;;;;13.73;6.75;;;5.40;92.30;;;;;;5055116;28;20107;-48
2022/03/12 06:04:30;;;;;;;12.98;6.78;;;5.30;92.30;;;;;;5057884;28;20397;-50
2022/03/12 06:06:56;;;;;;;11.75;7.00;;;5.30;92.40;;;;;;5054894;28;20401;-52
2022/03/12 06:09:22;;;;;;;13.70;8.02;;;5.30;92.80;;;;;;5054695;28;20045;-50
2022/03/12 06:11:52;;;;;;;13.10;7.28;;;5.30;93.70;;;;;;5054563;28;20041;-52
2022/03/12 06:14:18;;;;;;;14.13;6.93;;;5.20;93.60;;;;;;5054664;28;20095;-48
2022/03/12 06:16:48;;;;;;;12.70;7.22;;;5.20;93.40;;;;;;5054616;28;20068;-49
2022/03/12 06:19:22;;;;;;;12.43;7.07;;;5.20;92.90;;;;;;5054664;28;20056;-49
2022/03/12 06:21:48;;;;;;;14.00;6.85;;;5.20;94.30;;;;;;5054540;28;20148;-49
2022/03/12 06:24:14;;;;;;;12.68;6.53;;;5.20;92.90;;;;;;5054315;28;20053;-47
2022/03/12 06:26:43;;;;;;;12.00;6.32;;;5.30;93.00;;;;;;5053870;28;20079;-50
2022/03/12 06:29:13;;;;;;;12.88;7.30;;;5.20;92.00;;;;;;5054160;28;20045;-51
2022/03/12 06:31:40;;;;;;;12.60;6.60;;;5.30;91.90;;;;;;5054378;28;20045;-52
2022/03/12 06:34:09;;;;;;;13.27;6.50;;;5.30;92.50;;;;;;5054509;28;20099;-52
2022/03/12 06:36:35;;;;;;;13.18;6.90;;;5.30;92.90;;;;;;5054203;28;20461;-50
2022/03/12 06:39:01;;;;;;;11.68;6.85;;;5.20;94.00;;;;;;5054197;28;20049;-53
2022/03/12 06:41:28;;;;;;;11.77;6.55;;;5.20;93.80;;;;;;5054009;28;20048;-52
2022/03/12 06:43:56;;;;;;;12.93;6.75;;;5.20;94.20;;;;;;5054360;28;20037;-51
2022/03/12 06:46:22;;;;;;;13.25;7.20;;;5.20;94.80;;;;;;5053964;28;20045;-49
2022/03/12 06:48:48;;;;;;;12.80;6.63;;;5.20;94.10;;;;;;5054247;28;20468;-49
2022/03/12 06:51:14;;;;;;;13.77;8.40;;;5.20;94.00;;;;;;5053659;28;20481;-47
2022/03/12 06:53:40;;;;;;;12.63;7.22;;;5.20;93.20;;;;;;5053995;28;20066;-50
2022/03/12 06:56:07;;;;;;;12.90;6.45;;;5.30;92.70;;;;;;5054026;28;20500;-49
2022/03/12 06:58:32;;;;;;;12.98;6.65;;;5.30;92.70;;;;;;5053634;28;20052;-48
2022/03/12 07:00:58;;;;;;;13.05;6.78;;;5.30;92.40;;;;;;5053851;28;20025;-48
2022/03/12 07:03:24;;;;;;;11.00;6.63;;;5.30;91.90;;;;;;5054286;28;20041;-48
2022/03/12 07:05:51;;;;;;;11.15;7.10;;;5.40;91.20;;;;;;5056613;28;20051;-48
2022/03/12 07:08:19;;;;;;;14.25;6.82;;;5.40;91.60;;;;;;5053789;28;20044;-49
2022/03/12 07:10:46;;;;;;;15.32;6.18;;;5.50;91.90;;;;;;5053819;28;20040;-48
2022/03/12 07:13:12;;;;;;;12.30;6.72;;;5.50;90.60;;;;;;5053518;28;20440;-50
2022/03/12 07:15:38;;;;;;;10.40;6.70;;;5.50;90.60;;;;;;5053449;28;20041;-47
2022/03/12 07:18:04;;;;;;;13.40;6.78;;;5.60;90.90;;;;;;5053664;28;20041;-47
2022/03/12 07:20:30;;;;;;;12.88;7.03;;;5.60;89.80;;;;;;5053585;28;20076;-47
2022/03/12 07:22:56;;;;;;;14.35;6.85;;;5.70;90.60;;;;;;5053307;28;20083;-49
2022/03/12 07:25:24;;;;;;;15.57;7.38;;;5.70;90.70;;;;;;5051851;28;20052;-49
2022/03/12 07:27:51;;;;;;;13.70;6.90;;;5.90;91.00;;;;;;5052677;28;20123;-48
2022/03/12 07:30:16;;;;;;;9.45;5.53;;;5.90;90.60;;;;;;5052330;28;20041;-48
2022/03/12 07:32:44;;;;;;;12.88;7.53;;;6.00;90.40;;;;;;5051940;28;20411;-53
2022/03/12 07:35:12;;;;;;;11.55;6.60;;;6.00;90.10;;;;;;5050813;28;20100;-53
2022/03/12 07:37:38;;;;;;;12.90;6.40;;;6.10;90.20;;;;;;5051935;28;20041;-50
2022/03/12 07:40:05;;;;;;;12.40;7.05;;;6.00;89.60;;;;;;5050090;28;20049;-51
2022/03/12 07:42:30;;;;;;;10.38;5.95;;;6.10;90.00;;;;;;5051526;28;20091;-51
2022/03/12 07:44:56;;;;;;;12.32;7.47;;;6.10;90.30;;;;;;5050788;28;20080;-50
2022/03/12 07:47:22;;;;;;;15.82;7.82;;;6.20;90.40;;;;;;5050904;28;20037;-51
2022/03/12 07:49:47;;;;;;;11.80;6.63;;;6.20;90.30;;;;;;5050827;28;20047;-51
2022/03/12 07:52:14;;;;;;;12.57;7.15;;;6.30;90.10;;;;;;5052123;28;20148;-49
2022/03/12 07:54:39;;;;;;;10.93;6.25;;;6.30;89.40;;;;;;5050685;28;20131;-52
2022/03/12 07:57:05;;;;;;;10.45;6.28;;;6.40;90.00;;;;;;5056052;28;20052;-49
2022/03/12 07:59:31;;;;;;;10.38;6.60;;;6.40;89.80;;;;;;5055624;28;20033;-48
2022/03/12 08:01:58;;;;;;;13.15;7.30;;;6.50;90.70;;;;;;5050475;28;20041;-52
2022/03/12 08:04:25;;;;;;;13.00;6.55;;;6.60;89.80;;;;;;5054923;28;20029;-49
2022/03/12 08:06:51;;;;;;;13.95;6.60;;;6.70;89.00;;;;;;5050683;28;20044;-49
2022/03/12 08:09:16;;;;;;;12.68;7.60;;;6.80;89.30;;;;;;5051627;28;20481;-49
2022/03/12 08:11:43;;;;;;;11.57;7.07;;;6.80;90.20;;;;;;5051156;28;20083;-48
2022/03/12 08:14:09;;;;;;;11.70;7.07;;;6.90;90.10;;;;;;5051503;28;20033;-53
2022/03/12 08:16:36;;;;;;;11.48;7.10;;;6.90;90.10;;;;;;5049845;28;20043;-51
2022/03/12 08:19:03;;;;;;;16.52;7.05;;;7.10;90.50;;;;;;5049968;28;20048;-53
2022/03/12 08:21:30;;;;;;;13.30;7.90;;;7.20;90.60;;;;;;5051194;28;20053;-49
2022/03/12 08:23:56;;;;;;;15.80;7.93;;;7.20;91.10;;;;;;5051195;28;20489;-51
2022/03/12 08:26:22;;;;;;;17.75;7.35;;;7.30;90.60;;;;;;5050994;28;20041;-51
2022/03/12 08:28:48;;;;;;;11.80;7.40;;;7.30;90.30;;;;;;5050547;28;20037;-48
2022/03/12 08:31:14;;;;;;;14.25;7.25;;;7.40;90.10;;;;;;5051443;28;20091;-54
2022/03/12 08:33:40;;;;;;;13.80;7.97;;;7.40;90.30;;;;;;5050997;28;20037;-53
2022/03/12 08:36:06;;;;;;;13.57;7.55;;;7.50;90.20;;;;;;5050969;28;20036;-54
2022/03/12 08:38:36;;;;;;;16.63;7.60;;;7.50;90.90;;;;;;5050642;28;20049;-54
2022/03/12 08:41:05;;;;;;;12.60;7.40;;;7.70;91.00;;;;;;5050973;28;20029;-54
2022/03/12 08:43:32;;;;;;;14.15;8.88;;;7.80;91.50;;;;;;5050883;28;20040;-51
2022/03/12 08:45:58;;;;;;;14.02;8.27;;;7.90;91.60;;;;;;5051302;28;20047;-52
2022/03/12 08:48:24;;;;;;;14.85;8.60;;;8.10;91.40;;;;;;5051158;28;20045;-51
2022/03/12 08:50:49;;;;;;;13.95;8.18;;;8.30;92.70;;;;;;5053801;28;20086;-53
2022/03/12 08:53:18;;;;;;;16.70;8.13;;;8.40;92.50;;;;;;5054160;28;20041;-50
2022/03/12 08:55:44;;;;;;;17.42;8.93;;;8.50;92.60;;;;;;5055272;28;20045;-52
2022/03/12 08:58:10;;;;;;;15.60;8.13;;;8.50;92.90;;;;;;5055328;28;20094;-50
2022/03/12 09:00:36;;;;;;;15.10;8.80;;;8.60;92.60;;;;;;5054060;28;20374;-50
2022/03/12 09:03:02;;;;;;;13.38;7.95;;;8.70;93.60;;;;;;5055143;28;20040;-53
2022/03/12 09:05:28;;;;;;;14.90;8.48;;;8.80;92.50;;;;;;5057888;28;20048;-53
2022/03/12 09:07:54;;;;;;;12.30;7.85;;;8.90;93.00;;;;;;5054843;28;20041;-52
2022/03/12 09:10:22;;;;;;;12.60;8.68;;;9.00;93.10;;;;;;5055067;28;20060;-52
2022/03/12 09:12:48;;;;;;;14.95;9.00;;;9.10;93.80;;;;;;5055083;28;20180;-51
2022/03/12 09:15:16;;;;;;;15.18;8.55;;;9.20;93.60;;;;;;5054932;28;20120;-50
2022/03/12 09:17:42;;;;;;;17.73;8.80;;;9.30;93.30;;;;;;5054815;28;20072;-51
2022/03/12 09:20:09;;;;;;;13.50;8.23;;;9.30;93.90;;;;;;5055021;28;20077;-51
2022/03/12 09:22:34;;;;;;;13.55;8.50;;;9.40;93.60;;;;;;5054567;28;20041;-49
2022/03/12 09:25:02;;;;;;;14.27;8.63;;;9.60;93.50;;;;;;5054626;28;20056;-50
2022/03/12 09:27:28;;;;;;;14.65;8.77;;;9.60;93.90;;;;;;5054659;28;20552;-52
2022/03/12 09:29:53;;;;;;;15.43;8.48;;;9.70;94.90;;;;;;5054961;28;20151;-52
2022/03/12 09:32:20;;;;;;;18.45;9.82;;;9.80;94.80;;;;;;5053231;28;20393;-52
2022/03/12 09:34:46;;;;;;;14.15;8.15;;;9.90;95.70;;;;;;5054517;28;20055;-50
2022/03/12 09:37:12;;;;;;;13.20;8.15;;;10.00;95.40;;;;;;5054522;28;20045;-51
2022/03/12 09:39:38;;;;;;;13.98;8.48;;;10.10;96.00;;;;;;5054499;28;20029;-49
2022/03/12 09:42:04;;;;;;;13.43;8.57;;;10.10;96.60;;;;;;5054639;28;20048;-49
2022/03/12 09:44:29;;;;;;;18.65;12.73;;;10.10;96.70;;;;;;5054195;28;20033;-49
2022/03/12 09:46:56;;;;;;;14.95;9.20;;;10.10;97.40;;;;;;5054362;28;20056;-52
2022/03/12 09:49:22;;;;;;;16.00;8.38;;;10.10;97.70;;;;;;5054167;28;20037;-50
2022/03/12 09:51:49;;;;;;;14.95;9.35;;;10.20;97.90;;;;;;5053900;28;20400;-49
2022/03/12 09:54:15;;;;;;;14.40;9.02;;;10.30;98.60;;;;;;5054300;28;20124;-51
2022/03/12 09:56:42;;;;;;;11.82;7.55;;;10.30;98.40;;;;;;5054220;28;20365;-50
2022/03/12 09:59:07;;;;;;;14.32;9.00;;;10.40;99.10;;;;;;5054094;28;20107;-53
2022/03/12 10:01:33;;;;;;;16.85;8.93;;;10.40;99.10;;;;;;5053045;28;20599;-50
2022/03/12 10:03:59;;;;;;;13.45;9.20;;;10.50;99.90;;;;;;5057195;28;20111;-50
2022/03/12 10:06:25;;;;;;;17.23;8.70;;;10.50;99.60;;;;;;5054130;28;20116;-48
2022/03/12 10:08:55;;;;;;;14.68;9.00;;;10.60;99.90;;;;;;5054133;28;20112;-50
2022/03/12 10:11:21;;;;;;;15.27;9.05;;;10.60;99.90;;;;;;5053995;28;20463;-48
2022/03/12 10:13:46;;;;;;;17.60;9.75;;;10.70;99.90;;;;;;5053917;28;20128;-52
2022/03/12 10:16:13;;;;;;;15.55;9.57;;;10.70;99.90;;;;;;5053723;28;20147;-50
2022/03/12 10:18:40;;;;;;;15.50;8.98;;;10.70;99.90;;;;;;5053874;28;20090;-52
2022/03/12 10:21:05;;;;;;;13.63;8.23;;;10.80;99.90;;;;;;5053645;28;20041;-51
2022/03/12 10:23:33;;;;;;;13.70;9.07;;;10.90;99.90;;;;;;5053308;28;20043;-51
2022/03/12 10:25:58;;;;;;;12.68;8.85;;;11.00;99.90;;;;;;5052604;28;20053;-52
2022/03/12 10:28:24;;;;;;;15.73;9.07;;;11.10;99.90;;;;;;5035927;28;20056;-51
2022/03/12 10:30:50;;;;;;;15.07;9.05;;;11.20;99.90;;;;;;5054198;28;20485;-52
2022/03/12 10:33:24;;;;;;;13.85;8.55;;;11.20;99.90;;;;;;5053784;28;20037;-51
2022/03/12 10:35:50;;;;;;;14.80;8.57;;;11.30;99.90;;;;;;5054197;28;20068;-50
2022/03/12 10:38:17;;;;;;;14.55;9.05;;;11.40;99.90;;;;;;5054063;28;20083;-49
2022/03/12 10:40:44;;;;;;;12.27;8.60;;;11.40;99.90;;;;;;5054198;28;20392;-51
2022/03/12 10:43:13;;;;;;;12.98;8.75;;;11.40;99.90;;;;;;5053605;28;20045;-50
2022/03/12 10:45:40;;;;;;;13.90;8.93;;;11.50;99.90;;;;;;5053874;28;20041;-51
2022/03/12 10:48:07;;;;;;;13.77;8.65;;;11.60;99.90;;;;;;5053987;28;20103;-48
2022/03/12 10:50:39;;;;;;;16.52;9.43;;;11.70;99.90;;;;;;5054034;28;20045;-51
2022/03/12 10:53:06;;;;;;;14.48;8.27;;;11.70;99.90;;;;;;5054027;28;20044;-49
2022/03/12 10:55:35;;;;;;;15.70;8.38;;;11.80;99.90;;;;;;5053469;28;20567;-51
2022/03/12 10:58:15;;;;;;;14.68;7.78;;;11.90;99.90;;;;;;5053547;28;20053;-51
2022/03/12 11:00:46;;;;;;;15.75;8.45;;;11.90;99.90;;;;;;5052784;28;20065;-50
2022/03/12 11:03:14;;;;;;;13.40;8.00;;;12.00;99.90;;;;;;5052825;28;20076;-51
2022/03/12 11:05:43;;;;;;;12.15;7.32;;;12.10;99.90;;;;;;5055419;28;20040;-51
2022/03/12 11:08:26;;;;;;;11.90;7.80;;;12.10;99.90;;;;;;5053360;28;20142;-49
2022/03/12 11:11:11;;;;;;;13.90;8.23;;;12.10;99.90;;;;;;5052090;28;20108;-49
2022/03/12 11:13:50;;;;;;;15.07;7.57;;;12.10;99.90;;;;;;5053403;28;20450;-49
2022/03/12 11:16:36;;;;;;;13.60;8.20;;;12.20;99.90;;;;;;5057473;28;20033;-52
2022/03/12 11:19:07;;;;;;;11.85;7.38;;;12.30;99.90;;;;;;5063317;28;20053;-50
2022/03/12 11:21:43;;;;;;;14.38;7.40;;;12.30;99.90;;;;;;5063103;28;20040;-50
2022/03/12 11:24:09;;;;;;;12.85;7.55;;;12.40;99.90;;;;;;5051756;28;20048;-51
2022/03/12 11:26:48;;;;;;;14.15;8.48;;;12.40;99.90;;;;;;5053400;28;20052;-50
2022/03/12 11:29:15;;;;;;;13.43;7.93;;;12.40;99.90;;;;;;5053248;28;20045;-51
2022/03/12 11:31:53;;;;;;;13.63;7.75;;;12.60;99.90;;;;;;5053373;28;20037;-49
2022/03/12 11:34:32;;;;;;;11.02;7.60;;;12.60;99.90;;;;;;5053410;28;20118;-51
2022/03/12 11:36:59;;;;;;;12.98;7.82;;;12.60;99.90;;;;;;5051966;28;20432;-50
2022/03/12 11:39:39;;;;;;;13.07;7.28;;;12.60;99.90;;;;;;5052016;28;20049;-53
2022/03/12 11:42:15;;;;;;;13.15;6.68;;;12.70;99.90;;;;;;5053041;28;20048;-53
2022/03/12 11:44:48;;;;;;;15.15;7.63;;;12.80;99.90;;;;;;5051923;28;20072;-50
2022/03/12 11:47:25;;;;;;;13.23;7.20;;;12.80;99.90;;;;;;5059751;28;20488;-50
2022/03/12 11:49:54;;;;;;;12.77;6.82;;;12.80;99.90;;;;;;5061974;28;20384;-49
2022/03/12 11:52:20;;;;;;;12.02;6.93;;;12.90;99.90;;;;;;5063170;28;20055;-52
2022/03/12 11:54:47;;;;;;;10.95;6.55;;;13.00;99.90;;;;;;5056529;28;20041;-51
2022/03/12 11:57:20;;;;;;;10.98;6.78;;;13.00;99.90;;;;;;5061218;28;20559;-51
2022/03/12 11:59:46;;;;;;;11.02;6.10;;;13.10;99.90;;;;;;5056184;28;20038;-53
2022/03/12 12:02:22;;;;;;;10.05;5.25;;;13.20;99.90;;;;;;5052445;28;20437;-54
2022/03/12 12:04:51;;;;;;;12.90;6.75;;;13.40;99.90;;;;;;5055469;28;20079;-54
2022/03/12 12:07:17;;;;;;;11.38;6.97;;;13.40;99.90;;;;;;5052764;28;20033;-54
2022/03/12 12:09:43;;;;;;;12.02;5.88;;;13.50;99.90;;;;;;5052733;28;20033;-54
2022/03/12 12:12:12;;;;;;;11.52;5.75;;;13.60;99.90;;;;;;5052486;28;20062;-54
2022/03/12 12:14:39;;;;;;;8.75;5.18;;;13.50;99.90;;;;;;5052643;28;20045;-54
2022/03/12 12:17:05;;;;;;;11.82;5.82;;;13.40;99.90;;;;;;5052297;28;20081;-52
2022/03/12 12:19:31;;;;;;;10.90;5.63;;;13.40;99.90;;;;;;5052333;28;20379;-53
2022/03/12 12:21:56;;;;;;;13.57;6.05;;;13.30;99.90;;;;;;5052056;28;20098;-53
2022/03/12 12:24:35;;;;;;;12.23;6.20;;;13.30;99.90;;;;;;5051463;28;20053;-53
2022/03/12 12:27:06;;;;;;;12.52;6.28;;;13.30;99.90;;;;;;5052534;28;20037;-50
2022/03/12 12:29:40;;;;;;;12.57;6.20;;;13.30;99.90;;;;;;5052578;28;20064;-49
2022/03/12 12:32:07;;;;;;;15.00;5.68;;;13.30;99.90;;;;;;5052152;28;20124;-52
2022/03/12 12:34:37;;;;;;;9.32;4.70;;;13.30;99.90;;;;;;5052091;28;20076;-53
2022/03/12 12:37:04;;;;;;;10.75;5.05;;;13.30;99.90;;;;;;5052353;28;20051;-49
2022/03/12 12:39:30;;;;;;;9.93;5.20;;;13.30;99.90;;;;;;5052380;28;20455;-50
2022/03/12 12:42:05;;;;;;;11.93;5.68;;;13.50;99.90;;;;;;5060455;28;20121;-50
2022/03/12 12:44:39;;;;;;;9.60;5.28;;;13.40;99.90;;;;;;5060950;28;20039;-51
2022/03/12 12:47:08;;;;;;;10.20;5.72;;;13.50;99.90;;;;;;5061736;28;20033;-50
2022/03/12 12:49:41;;;;;;;11.68;6.10;;;13.70;99.90;;;;;;5062461;28;20644;-50